Houn Maru — JG5489 — position and weather

sailwx.info

Track history (hours):
 
Tides and Currents Weather Stations Pressure Air Temp Water Temp Dewpoint Dewpoint Depression Visibility Wind Speed Wind Dir Waves Ship Positions

Houn Maru

Last reported at 2018-Jan-22 10:07 UTC. Time now 2018-Jan-23 06:06 UTC.
Position N 34°27' E 134°03'.

Length 91 m; draft 6 m.

Type: Tanker. MMSI: 431101172.

Date/timePositionNaut miles runAvg speedWind from/ knotsBaromVisibWave heightAir tempDewpointWater temp
2018-Jan-22 10:07N 34°27' E 134°03'1211.4
2018-Jan-22 09:03N 34°24' E 134°17'211.7
2018-Jan-22 08:53N 34°24' E 134°19'511.9
2018-Jan-22 08:30N 34°26' E 134°25'612.4
2018-Jan-22 08:00N 34°28' E 134°31'612.2
2018-Jan-22 07:31N 34°31' E 134°38'612.3
2018-Jan-22 07:00N 34°33' E 134°45'612.7
2018-Jan-22 06:30N 34°35' E 134°52'612.6
2018-Jan-22 06:00N 34°38' E 134°60'612.2
2018-Jan-22 05:30N 34°34' E 135°06'713.0
2018-Jan-22 05:00N 34°28' E 135°09'511.2
2018-Jan-22 04:30N 34°24' E 135°13'2 3.1
2018-Jan-22 04:00N 34°25' E 135°14'0 0.0
2018-Jan-22 03:27N 34°25' E 135°14'0 0.0
2018-Jan-22 03:00N 34°25' E 135°14'0 0.0
2018-Jan-22 02:30N 34°25' E 135°14'0 0.0
2018-Jan-22 02:00N 34°25' E 135°14'0 0.0
2018-Jan-22 01:27N 34°25' E 135°14'0 0.0
2018-Jan-22 01:00N 34°25' E 135°14'0 0.0
2018-Jan-22 00:30N 34°25' E 135°14'0 0.9
2018-Jan-22 00:00N 34°25' E 135°14'2 3.6
2018-Jan-21 23:30N 34°23' E 135°13'0 0.0
2018-Jan-21 23:00N 34°23' E 135°13'0 0.0
2018-Jan-21 22:30N 34°23' E 135°13'0 0.0
2018-Jan-21 22:00N 34°23' E 135°13'0 0.0
2018-Jan-21 21:30N 34°23' E 135°13'0 0.0
2018-Jan-21 21:00N 34°23' E 135°13'0 0.0
2018-Jan-21 20:30N 34°23' E 135°13'0 0.0
2018-Jan-21 20:00N 34°23' E 135°13'0 0.0
2018-Jan-21 19:30N 34°23' E 135°13'0 0.0
2018-Jan-21 19:00N 34°23' E 135°13'0 0.1
2018-Jan-21 18:30N 34°23' E 135°13'0 0.1
2018-Jan-21 17:57N 34°23' E 135°13'0 0.3
2018-Jan-21 17:31N 34°23' E 135°13'510.5
2018-Jan-21 17:00N 34°27' E 135°08'611.9
2018-Jan-21 16:30N 34°33' E 135°05'611.2
2018-Jan-21 16:00N 34°37' E 135°01'510.9
2018-Jan-21 15:30N 34°35' E 134°54'510.3
2018-Jan-21 15:00N 34°33' E 134°49'510.8
2018-Jan-21 14:30N 34°31' E 134°43'611.4
2018-Jan-21 14:00N 34°29' E 134°36'611.5
2018-Jan-21 13:30N 34°27' E 134°30'611.4
2018-Jan-21 13:00N 34°25' E 134°23'21 0.6
2018-Jan-20 03:43N 34°26' E 133°58'1412.2
2018-Jan-20 02:35N 34°24' E 134°15'113.1
2018-Jan-20 02:29N 34°24' E 134°16'612.8
2018-Jan-20 02:00N 34°26' E 134°23'713.1
2018-Jan-20 01:30N 34°29' E 134°31'713.6
2018-Jan-20 01:00N 34°31' E 134°38'714.2
2018-Jan-20 00:31N 34°34' E 134°46'815.7
2018-Jan-20 00:01N 34°36' E 134°55'714.8
2018-Jan-19 23:30N 34°36' E 135°04'3 6.0
2018-Jan-19 23:00N 34°37' E 135°08'0 0.0
2018-Jan-19 22:30N 34°37' E 135°08'0 0.0
2018-Jan-19 22:00N 34°37' E 135°08'0 0.0
2018-Jan-19 21:30N 34°37' E 135°08'0 0.0
2018-Jan-19 21:00N 34°37' E 135°08'0 0.1
2018-Jan-19 20:30N 34°37' E 135°08'0 0.0
2018-Jan-19 20:00N 34°37' E 135°08'0 0.0
2018-Jan-19 19:30N 34°37' E 135°08'0 0.0
2018-Jan-19 19:00N 34°37' E 135°08'0 0.0
2018-Jan-19 18:30N 34°37' E 135°08'0 0.1
2018-Jan-19 18:00N 34°37' E 135°08'0 0.0
2018-Jan-19 17:30N 34°37' E 135°08'0 0.0
2018-Jan-19 17:00N 34°37' E 135°08'0 0.0
2018-Jan-19 16:30N 34°37' E 135°08'0 0.0
2018-Jan-19 16:00N 34°37' E 135°08'0 0.0
2018-Jan-19 15:30N 34°37' E 135°08'0 0.0
2018-Jan-19 15:00N 34°37' E 135°08'0 0.0
2018-Jan-19 14:30N 34°37' E 135°08'0 0.0
2018-Jan-19 14:00N 34°37' E 135°08'0 0.0
2018-Jan-19 13:30N 34°37' E 135°08'0 0.0
2018-Jan-19 13:00N 34°37' E 135°08'0 0.0
2018-Jan-19 12:30N 34°37' E 135°08'0 0.0
2018-Jan-19 12:00N 34°37' E 135°08'0 0.0
2018-Jan-19 11:30N 34°37' E 135°08'0 0.0
2018-Jan-19 11:00N 34°37' E 135°08'1 1.5
2018-Jan-19 10:30N 34°36' E 135°08'612.3
2018-Jan-19 10:01N 34°30' E 135°10'611.9
2018-Jan-19 09:30N 34°24' E 135°11'3 5.3
2018-Jan-19 09:00N 34°25' E 135°14'0 0.0
2018-Jan-19 08:28N 34°25' E 135°14'0 0.0
2018-Jan-19 07:58N 34°25' E 135°14'0 0.0
2018-Jan-19 07:28N 34°25' E 135°14'0 0.0
2018-Jan-19 06:58N 34°25' E 135°14'0 0.0
2018-Jan-19 06:28N 34°25' E 135°14'0 0.0
2018-Jan-19 05:58N 34°25' E 135°14'0 0.0
2018-Jan-19 05:28N 34°25' E 135°14'0 0.0
2018-Jan-19 05:00N 34°25' E 135°14'2 3.7
2018-Jan-19 04:30N 34°24' E 135°13'4 7.1
2018-Jan-19 04:01N 34°27' E 135°12'611.9
2018-Jan-19 03:31N 34°30' E 135°19'2 3.5
2018-Jan-19 02:58N 34°31' E 135°21'0 0.1
2018-Jan-19 02:28N 34°31' E 135°21'0 0.0
2018-Jan-19 01:58N 34°31' E 135°21'0 0.0
2018-Jan-19 01:28N 34°31' E 135°21'0 0.0
2018-Jan-19 00:58N 34°31' E 135°21'0 0.0
2018-Jan-19 00:28N 34°31' E 135°21'0 0.0
2018-Jan-18 23:58N 34°31' E 135°21'0 0.0
2018-Jan-18 23:28N 34°31' E 135°21'0 0.0
2018-Jan-18 22:58N 34°31' E 135°21'0 0.0
2018-Jan-18 22:28N 34°31' E 135°21'0 0.0
2018-Jan-18 21:58N 34°31' E 135°21'0 0.1
2018-Jan-18 21:28N 34°31' E 135°21'0 0.1
2018-Jan-18 20:58N 34°31' E 135°21'0 0.0
2018-Jan-18 20:28N 34°31' E 135°21'0 0.0
2018-Jan-18 19:58N 34°31' E 135°21'0 0.0
2018-Jan-18 19:28N 34°31' E 135°21'0 0.0
2018-Jan-18 18:58N 34°31' E 135°21'0 0.0
2018-Jan-18 18:28N 34°31' E 135°21'0 0.0
2018-Jan-18 17:58N 34°31' E 135°21'0 0.0
2018-Jan-18 17:28N 34°31' E 135°21'0 0.0
2018-Jan-18 16:58N 34°31' E 135°21'0 0.0
2018-Jan-18 16:28N 34°31' E 135°21'0 0.0
2018-Jan-18 15:58N 34°31' E 135°21'0 0.0
2018-Jan-18 15:28N 34°31' E 135°21'0 0.0
2018-Jan-18 14:58N 34°31' E 135°21'0 0.0
2018-Jan-18 14:28N 34°31' E 135°21'0 0.0
2018-Jan-18 13:58N 34°31' E 135°21'0 0.0
2018-Jan-18 13:28N 34°31' E 135°21'0 0.0
2018-Jan-18 12:58N 34°31' E 135°21'0 0.1
2018-Jan-18 12:28N 34°31' E 135°21'0 0.0
2018-Jan-18 11:58N 34°31' E 135°21'0 0.0
2018-Jan-18 11:28N 34°31' E 135°21'0 0.0
2018-Jan-18 10:58N 34°31' E 135°21'0 0.0
2018-Jan-18 10:28N 34°31' E 135°21'0 0.1
2018-Jan-18 09:58N 34°31' E 135°21'0 0.0
2018-Jan-18 09:28N 34°31' E 135°21'0 0.0
2018-Jan-18 08:58N 34°31' E 135°21'0 0.9
2018-Jan-18 08:31N 34°31' E 135°21'4 7.9
2018-Jan-18 08:00N 34°33' E 135°26'0 0.1
2018-Jan-18 07:30N 34°33' E 135°26'0 0.0
2018-Jan-18 07:00N 34°33' E 135°26'0 0.0
2018-Jan-18 06:30N 34°33' E 135°26'0 0.0
2018-Jan-18 05:54N 34°33' E 135°26'0 0.0
2018-Jan-18 05:30N 34°33' E 135°26'0 0.0
2018-Jan-18 05:00N 34°33' E 135°26'0 0.0
2018-Jan-18 04:30N 34°33' E 135°26'0 0.0
2018-Jan-18 04:00N 34°33' E 135°26'0 0.0
2018-Jan-18 03:30N 34°33' E 135°26'0 0.0
2018-Jan-18 03:00N 34°33' E 135°26'0 0.0
2018-Jan-18 02:30N 34°33' E 135°26'0 0.0
2018-Jan-18 01:54N 34°33' E 135°26'0 0.0
2018-Jan-18 01:30N 34°33' E 135°26'0 0.0
2018-Jan-18 01:00N 34°33' E 135°26'0 0.0
2018-Jan-18 00:00N 34°33' E 135°26'0 0.0
2018-Jan-17 23:57N 34°33' E 135°26'  
2018-Jan-12 15:00N 34°34' E 135°04'612.7
2018-Jan-12 14:30N 34°36' E 134°57'714.2
2018-Jan-12 14:00N 34°33' E 134°49'612.8
2018-Jan-12 13:30N 34°31' E 134°42'612.4
2018-Jan-12 13:00N 34°28' E 134°35'612.2
2018-Jan-12 12:30N 34°26' E 134°28'612.2
2018-Jan-12 12:00N 34°24' E 134°21'  
Track history (hours):
 
Tides and Currents Weather Stations Pressure Air Temp Water Temp Dewpoint Dewpoint Depression Visibility Wind Speed Wind Dir Waves Ship Positions

Houn Maru

Last reported at 2018-Jan-22 10:07 UTC. Time now 2018-Jan-23 06:06 UTC.
Position N 34°27' E 134°03'.

Length 91 m; draft 6 m.

Type: Tanker. MMSI: 431101172.

Date/timePositionNaut miles runAvg speedWind from/ knotsBaromVisibWave heightAir tempDewpointWater temp
2018-Jan-22 10:07N 34°27' E 134°03'1211.4
2018-Jan-22 09:03N 34°24' E 134°17'211.7
2018-Jan-22 08:53N 34°24' E 134°19'511.9
2018-Jan-22 08:30N 34°26' E 134°25'612.4
2018-Jan-22 08:00N 34°28' E 134°31'612.2
2018-Jan-22 07:31N 34°31' E 134°38'612.3
2018-Jan-22 07:00N 34°33' E 134°45'612.7
2018-Jan-22 06:30N 34°35' E 134°52'612.6
2018-Jan-22 06:00N 34°38' E 134°60'612.2
2018-Jan-22 05:30N 34°34' E 135°06'713.0
2018-Jan-22 05:00N 34°28' E 135°09'511.2
2018-Jan-22 04:30N 34°24' E 135°13'2 3.1
2018-Jan-22 04:00N 34°25' E 135°14'0 0.0
2018-Jan-22 03:27N 34°25' E 135°14'0 0.0
2018-Jan-22 03:00N 34°25' E 135°14'0 0.0
2018-Jan-22 02:30N 34°25' E 135°14'0 0.0
2018-Jan-22 02:00N 34°25' E 135°14'0 0.0
2018-Jan-22 01:27N 34°25' E 135°14'0 0.0
2018-Jan-22 01:00N 34°25' E 135°14'0 0.0
2018-Jan-22 00:30N 34°25' E 135°14'0 0.9
2018-Jan-22 00:00N 34°25' E 135°14'2 3.6
2018-Jan-21 23:30N 34°23' E 135°13'0 0.0
2018-Jan-21 23:00N 34°23' E 135°13'0 0.0
2018-Jan-21 22:30N 34°23' E 135°13'0 0.0
2018-Jan-21 22:00N 34°23' E 135°13'0 0.0
2018-Jan-21 21:30N 34°23' E 135°13'0 0.0
2018-Jan-21 21:00N 34°23' E 135°13'0 0.0
2018-Jan-21 20:30N 34°23' E 135°13'0 0.0
2018-Jan-21 20:00N 34°23' E 135°13'0 0.0
2018-Jan-21 19:30N 34°23' E 135°13'0 0.0
2018-Jan-21 19:00N 34°23' E 135°13'0 0.1
2018-Jan-21 18:30N 34°23' E 135°13'0 0.1
2018-Jan-21 17:57N 34°23' E 135°13'0 0.3
2018-Jan-21 17:31N 34°23' E 135°13'510.5
2018-Jan-21 17:00N 34°27' E 135°08'611.9
2018-Jan-21 16:30N 34°33' E 135°05'611.2
2018-Jan-21 16:00N 34°37' E 135°01'510.9
2018-Jan-21 15:30N 34°35' E 134°54'510.3
2018-Jan-21 15:00N 34°33' E 134°49'510.8
2018-Jan-21 14:30N 34°31' E 134°43'611.4
2018-Jan-21 14:00N 34°29' E 134°36'611.5
2018-Jan-21 13:30N 34°27' E 134°30'611.4
2018-Jan-21 13:00N 34°25' E 134°23'21 0.6
2018-Jan-20 03:43N 34°26' E 133°58'1412.2
2018-Jan-20 02:35N 34°24' E 134°15'113.1
2018-Jan-20 02:29N 34°24' E 134°16'612.8
2018-Jan-20 02:00N 34°26' E 134°23'713.1
2018-Jan-20 01:30N 34°29' E 134°31'713.6
2018-Jan-20 01:00N 34°31' E 134°38'714.2
2018-Jan-20 00:31N 34°34' E 134°46'815.7
2018-Jan-20 00:01N 34°36' E 134°55'714.8
2018-Jan-19 23:30N 34°36' E 135°04'3 6.0
2018-Jan-19 23:00N 34°37' E 135°08'0 0.0
2018-Jan-19 22:30N 34°37' E 135°08'0 0.0
2018-Jan-19 22:00N 34°37' E 135°08'0 0.0
2018-Jan-19 21:30N 34°37' E 135°08'0 0.0
2018-Jan-19 21:00N 34°37' E 135°08'0 0.1
2018-Jan-19 20:30N 34°37' E 135°08'0 0.0
2018-Jan-19 20:00N 34°37' E 135°08'0 0.0
2018-Jan-19 19:30N 34°37' E 135°08'0 0.0
2018-Jan-19 19:00N 34°37' E 135°08'0 0.0
2018-Jan-19 18:30N 34°37' E 135°08'0 0.1
2018-Jan-19 18:00N 34°37' E 135°08'0 0.0
2018-Jan-19 17:30N 34°37' E 135°08'0 0.0
2018-Jan-19 17:00N 34°37' E 135°08'0 0.0
2018-Jan-19 16:30N 34°37' E 135°08'0 0.0
2018-Jan-19 16:00N 34°37' E 135°08'0 0.0
2018-Jan-19 15:30N 34°37' E 135°08'0 0.0
2018-Jan-19 15:00N 34°37' E 135°08'0 0.0
2018-Jan-19 14:30N 34°37' E 135°08'0 0.0
2018-Jan-19 14:00N 34°37' E 135°08'0 0.0
2018-Jan-19 13:30N 34°37' E 135°08'0 0.0
2018-Jan-19 13:00N 34°37' E 135°08'0 0.0
2018-Jan-19 12:30N 34°37' E 135°08'0 0.0
2018-Jan-19 12:00N 34°37' E 135°08'0 0.0
2018-Jan-19 11:30N 34°37' E 135°08'0 0.0
2018-Jan-19 11:00N 34°37' E 135°08'1 1.5
2018-Jan-19 10:30N 34°36' E 135°08'612.3
2018-Jan-19 10:01N 34°30' E 135°10'611.9
2018-Jan-19 09:30N 34°24' E 135°11'3 5.3
2018-Jan-19 09:00N 34°25' E 135°14'0 0.0
2018-Jan-19 08:28N 34°25' E 135°14'0 0.0
2018-Jan-19 07:58N 34°25' E 135°14'0 0.0
2018-Jan-19 07:28N 34°25' E 135°14'0 0.0
2018-Jan-19 06:58N 34°25' E 135°14'0 0.0
2018-Jan-19 06:28N 34°25' E 135°14'0 0.0
2018-Jan-19 05:58N 34°25' E 135°14'0 0.0
2018-Jan-19 05:28N 34°25' E 135°14'0 0.0
2018-Jan-19 05:00N 34°25' E 135°14'2 3.7
2018-Jan-19 04:30N 34°24' E 135°13'4 7.1
2018-Jan-19 04:01N 34°27' E 135°12'611.9
2018-Jan-19 03:31N 34°30' E 135°19'2 3.5
2018-Jan-19 02:58N 34°31' E 135°21'0 0.1
2018-Jan-19 02:28N 34°31' E 135°21'0 0.0
2018-Jan-19 01:58N 34°31' E 135°21'0 0.0
2018-Jan-19 01:28N 34°31' E 135°21'0 0.0
2018-Jan-19 00:58N 34°31' E 135°21'0 0.0
2018-Jan-19 00:28N 34°31' E 135°21'0 0.0
2018-Jan-18 23:58N 34°31' E 135°21'0 0.0
2018-Jan-18 23:28N 34°31' E 135°21'0 0.0
2018-Jan-18 22:58N 34°31' E 135°21'0 0.0
2018-Jan-18 22:28N 34°31' E 135°21'0 0.0
2018-Jan-18 21:58N 34°31' E 135°21'0 0.1
2018-Jan-18 21:28N 34°31' E 135°21'0 0.1
2018-Jan-18 20:58N 34°31' E 135°21'0 0.0
2018-Jan-18 20:28N 34°31' E 135°21'0 0.0
2018-Jan-18 19:58N 34°31' E 135°21'0 0.0
2018-Jan-18 19:28N 34°31' E 135°21'0 0.0
2018-Jan-18 18:58N 34°31' E 135°21'0 0.0
2018-Jan-18 18:28N 34°31' E 135°21'0 0.0
2018-Jan-18 17:58N 34°31' E 135°21'0 0.0
2018-Jan-18 17:28N 34°31' E 135°21'0 0.0
2018-Jan-18 16:58N 34°31' E 135°21'0 0.0
2018-Jan-18 16:28N 34°31' E 135°21'0 0.0
2018-Jan-18 15:58N 34°31' E 135°21'0 0.0
2018-Jan-18 15:28N 34°31' E 135°21'0 0.0
2018-Jan-18 14:58N 34°31' E 135°21'0 0.0
2018-Jan-18 14:28N 34°31' E 135°21'0 0.0
2018-Jan-18 13:58N 34°31' E 135°21'0 0.0
2018-Jan-18 13:28N 34°31' E 135°21'0 0.0
2018-Jan-18 12:58N 34°31' E 135°21'0 0.1
2018-Jan-18 12:28N 34°31' E 135°21'0 0.0
2018-Jan-18 11:58N 34°31' E 135°21'0 0.0
2018-Jan-18 11:28N 34°31' E 135°21'0 0.0
2018-Jan-18 10:58N 34°31' E 135°21'0 0.0
2018-Jan-18 10:28N 34°31' E 135°21'0 0.1
2018-Jan-18 09:58N 34°31' E 135°21'0 0.0
2018-Jan-18 09:28N 34°31' E 135°21'0 0.0
2018-Jan-18 08:58N 34°31' E 135°21'0 0.9
2018-Jan-18 08:31N 34°31' E 135°21'4 7.9
2018-Jan-18 08:00N 34°33' E 135°26'0 0.1
2018-Jan-18 07:30N 34°33' E 135°26'0 0.0
2018-Jan-18 07:00N 34°33' E 135°26'0 0.0
2018-Jan-18 06:30N 34°33' E 135°26'0 0.0
2018-Jan-18 05:54N 34°33' E 135°26'0 0.0
2018-Jan-18 05:30N 34°33' E 135°26'0 0.0
2018-Jan-18 05:00N 34°33' E 135°26'0 0.0
2018-Jan-18 04:30N 34°33' E 135°26'0 0.0
2018-Jan-18 04:00N 34°33' E 135°26'0 0.0
2018-Jan-18 03:30N 34°33' E 135°26'0 0.0
2018-Jan-18 03:00N 34°33' E 135°26'0 0.0
2018-Jan-18 02:30N 34°33' E 135°26'0 0.0
2018-Jan-18 01:54N 34°33' E 135°26'0 0.0
2018-Jan-18 01:30N 34°33' E 135°26'0 0.0
2018-Jan-18 01:00N 34°33' E 135°26'0 0.0
2018-Jan-18 00:00N 34°33' E 135°26'0 0.0
2018-Jan-17 23:57N 34°33' E 135°26'  
2018-Jan-12 15:00N 34°34' E 135°04'612.7
2018-Jan-12 14:30N 34°36' E 134°57'714.2
2018-Jan-12 14:00N 34°33' E 134°49'612.8
2018-Jan-12 13:30N 34°31' E 134°42'612.4
2018-Jan-12 13:00N 34°28' E 134°35'612.2
2018-Jan-12 12:30N 34°26' E 134°28'612.2
2018-Jan-12 12:00N 34°24' E 134°21'  

Dump ship's entire track history